createdAt,value
2023-01-07T00:01:56.017Z,8.98
2023-01-07T00:04:23.841Z,8.96
2023-01-07T00:06:52.928Z,9.05
2023-01-07T00:09:20.594Z,8.85
2023-01-07T00:11:48.278Z,8.72
2023-01-07T00:14:15.936Z,9.00
2023-01-07T00:16:43.747Z,8.95
2023-01-07T00:19:15.357Z,9.02
2023-01-07T00:21:43.344Z,9.01
2023-01-07T00:24:11.776Z,8.90
2023-01-07T00:26:40.690Z,8.78
2023-01-07T00:29:08.880Z,8.75
2023-01-07T00:31:38.688Z,8.39
2023-01-07T00:34:07.308Z,8.71
2023-01-07T00:36:39.583Z,8.98
2023-01-07T00:39:16.780Z,8.74
2023-01-07T00:42:04.035Z,8.76
2023-01-07T00:44:32.041Z,8.63
2023-01-07T00:47:00.396Z,8.30
2023-01-07T00:49:28.629Z,8.45
2023-01-07T00:51:56.201Z,8.53
2023-01-07T00:54:25.611Z,8.29
2023-01-07T00:56:53.408Z,8.55
2023-01-07T00:59:21.133Z,8.54
2023-01-07T01:01:48.963Z,8.73
2023-01-07T01:04:17.094Z,8.79
2023-01-07T01:06:44.774Z,8.34
2023-01-07T01:09:13.101Z,8.19
2023-01-07T01:11:41.971Z,8.48
2023-01-07T01:14:11.419Z,8.65
2023-01-07T01:16:39.315Z,8.59
2023-01-07T01:19:07.394Z,8.65
2023-01-07T01:21:35.034Z,8.65
2023-01-07T01:24:02.592Z,8.43
2023-01-07T01:26:30.254Z,8.53
2023-01-07T01:28:57.950Z,8.46
2023-01-07T01:31:25.962Z,8.55
2023-01-07T01:33:59.943Z,8.54
2023-01-07T01:36:27.675Z,8.66
2023-01-07T01:38:58.151Z,8.76
2023-01-07T01:41:28.527Z,8.72
2023-01-07T01:43:58.352Z,8.50
2023-01-07T01:46:35.401Z,8.56
2023-01-07T01:49:06.102Z,8.60
2023-01-07T01:51:39.614Z,8.50
2023-01-07T01:54:11.976Z,8.81
2023-01-07T01:56:46.082Z,8.76
2023-01-07T01:59:20.827Z,8.47
2023-01-07T02:01:48.992Z,8.37
2023-01-07T02:04:21.216Z,8.26
2023-01-07T02:06:58.312Z,8.22
2023-01-07T02:09:27.980Z,8.39
2023-01-07T02:12:32.916Z,8.59
2023-01-07T02:15:11.358Z,8.68
2023-01-07T02:17:55.843Z,8.75
2023-01-07T02:20:35.193Z,8.58
2023-01-07T02:23:21.559Z,8.56
2023-01-07T02:26:03.043Z,8.63
2023-01-07T02:28:55.188Z,8.58
2023-01-07T02:32:00.348Z,8.48
2023-01-07T02:34:52.377Z,8.37
2023-01-07T02:37:23.197Z,8.47
2023-01-07T02:40:06.147Z,8.50
2023-01-07T02:43:10.714Z,8.48
2023-01-07T02:45:58.388Z,8.61
2023-01-07T02:48:26.580Z,8.75
2023-01-07T02:50:54.268Z,8.62
2023-01-07T02:53:22.284Z,8.60
2023-01-07T02:56:32.085Z,8.58
2023-01-07T02:59:08.762Z,8.63
2023-01-07T03:01:55.910Z,8.45
2023-01-07T03:04:38.742Z,8.44
2023-01-07T03:07:36.256Z,8.35
2023-01-07T03:10:29.423Z,8.35
2023-01-07T03:13:18.373Z,8.54
2023-01-07T03:15:51.295Z,8.58
2023-01-07T03:18:27.384Z,8.55
2023-01-07T03:21:06.129Z,8.52
2023-01-07T03:23:39.086Z,8.55
2023-01-07T03:26:07.954Z,8.40
2023-01-07T03:28:40.762Z,8.25
2023-01-07T03:31:15.701Z,8.24
2023-01-07T03:34:01.754Z,8.11
2023-01-07T03:36:36.488Z,8.28
2023-01-07T03:39:06.843Z,8.25
2023-01-07T03:41:53.244Z,8.27
2023-01-07T03:44:20.874Z,8.36
2023-01-07T03:46:49.268Z,8.47
2023-01-07T03:49:16.827Z,8.45
2023-01-07T03:51:46.115Z,8.48
2023-01-07T03:54:14.070Z,8.50
2023-01-07T03:56:41.806Z,8.49
2023-01-07T03:59:09.559Z,8.28
2023-01-07T04:01:37.438Z,8.36
2023-01-07T04:04:05.441Z,8.49
2023-01-07T04:06:33.073Z,8.51
2023-01-07T04:09:00.676Z,8.27
2023-01-07T04:11:28.745Z,8.39
2023-01-07T04:14:00.759Z,8.55
2023-01-07T04:16:30.094Z,8.56
2023-01-07T04:19:05.586Z,8.52
2023-01-07T04:21:33.288Z,8.52
2023-01-07T04:24:00.945Z,8.38
2023-01-07T04:26:28.738Z,8.25
2023-01-07T04:28:56.441Z,8.39
2023-01-07T04:31:24.212Z,8.50
2023-01-07T04:33:51.896Z,8.37
2023-01-07T04:36:19.637Z,8.17
2023-01-07T04:38:49.123Z,8.33
2023-01-07T04:41:16.795Z,8.24
2023-01-07T04:43:46.982Z,8.26
2023-01-07T04:46:14.625Z,8.31
2023-01-07T04:48:43.330Z,8.31
2023-01-07T04:51:11.247Z,8.38
2023-01-07T04:53:39.682Z,8.49
2023-01-07T04:56:08.301Z,8.44
2023-01-07T04:58:36.151Z,8.35
2023-01-07T05:01:04.479Z,8.20
2023-01-07T05:03:37.331Z,8.32
2023-01-07T05:06:06.524Z,8.19
2023-01-07T05:08:34.566Z,8.35
2023-01-07T05:11:04.126Z,8.38
2023-01-07T05:13:35.333Z,8.45
2023-01-07T05:16:04.970Z,8.45
2023-01-07T05:18:32.773Z,8.35
2023-01-07T05:21:00.331Z,8.36
2023-01-07T05:23:29.063Z,8.34
2023-01-07T05:25:58.200Z,8.42
2023-01-07T05:28:25.812Z,8.34
2023-01-07T05:30:54.059Z,8.35
2023-01-07T05:33:21.815Z,8.46
2023-01-07T05:35:49.551Z,8.49
2023-01-07T05:38:18.550Z,8.38
2023-01-07T05:40:50.012Z,8.45
2023-01-07T05:43:21.672Z,8.40
2023-01-07T05:45:49.908Z,8.38
2023-01-07T05:48:17.768Z,8.54
2023-01-07T05:50:45.391Z,8.62
2023-01-07T05:53:13.440Z,8.56
2023-01-07T05:55:41.142Z,8.43
2023-01-07T05:58:09.193Z,8.39
2023-01-07T06:00:37.251Z,8.33
2023-01-07T06:03:05.889Z,8.42
2023-01-07T06:05:33.467Z,8.45
2023-01-07T06:08:01.053Z,8.44
2023-01-07T06:10:28.588Z,8.35
2023-01-07T06:12:56.198Z,8.42
2023-01-07T06:15:24.064Z,8.45
2023-01-07T06:17:51.616Z,8.40
2023-01-07T06:20:21.872Z,8.37
2023-01-07T06:22:49.471Z,8.33
2023-01-07T06:25:19.416Z,8.46
2023-01-07T06:27:46.919Z,8.45
2023-01-07T06:30:14.631Z,8.49
2023-01-07T06:32:46.728Z,8.50
2023-01-07T06:35:14.513Z,8.60
2023-01-07T06:37:42.125Z,8.46
2023-01-07T06:40:09.953Z,8.42
2023-01-07T06:42:37.627Z,8.31
2023-01-07T06:45:05.701Z,8.37
2023-01-07T06:47:33.212Z,8.23
2023-01-07T06:50:00.805Z,8.22
2023-01-07T06:52:28.376Z,8.33
2023-01-07T06:54:55.959Z,8.44
2023-01-07T06:57:23.517Z,8.46
2023-01-07T06:59:51.040Z,8.37
2023-01-07T07:02:22.036Z,8.34
2023-01-07T07:04:50.256Z,8.27
2023-01-07T07:07:18.507Z,8.40
2023-01-07T07:09:47.223Z,8.29
2023-01-07T07:12:14.879Z,8.55
2023-01-07T07:14:42.666Z,8.63
2023-01-07T07:17:10.307Z,8.89
2023-01-07T07:19:38.010Z,8.89
2023-01-07T07:22:05.571Z,8.80
2023-01-07T07:24:33.240Z,8.78
2023-01-07T07:27:00.842Z,8.76
2023-01-07T07:29:31.267Z,8.81
2023-01-07T07:31:59.085Z,8.75
2023-01-07T07:34:26.792Z,8.56
2023-01-07T07:36:54.398Z,8.52
2023-01-07T07:39:22.054Z,8.43
2023-01-07T07:41:49.629Z,8.46
2023-01-07T07:44:18.945Z,8.45
2023-01-07T07:46:46.665Z,8.45
2023-01-07T07:49:14.508Z,8.50
2023-01-07T07:51:42.113Z,8.69
2023-01-07T07:54:09.800Z,8.72
2023-01-07T07:56:37.411Z,8.69
2023-01-07T07:59:05.117Z,8.74
2023-01-07T08:01:32.867Z,8.71
2023-01-07T08:04:00.871Z,8.74
2023-01-07T08:06:28.467Z,8.83
2023-01-07T08:08:56.115Z,8.90
2023-01-07T08:11:23.799Z,9.02
2023-01-07T08:13:51.455Z,9.17
2023-01-07T08:16:19.168Z,9.01
2023-01-07T08:18:47.168Z,8.88
2023-01-07T08:21:16.988Z,8.84
2023-01-07T08:23:44.669Z,8.87
2023-01-07T08:26:12.316Z,8.73
2023-01-07T08:28:39.954Z,8.77
2023-01-07T08:31:08.586Z,9.00
2023-01-07T08:33:38.720Z,8.79
2023-01-07T08:36:18.051Z,8.89
2023-01-07T08:38:59.821Z,8.84
2023-01-07T08:41:27.431Z,8.81
2023-01-07T08:43:55.022Z,8.83
2023-01-07T08:46:22.642Z,9.07
2023-01-07T08:48:50.221Z,9.10
2023-01-07T08:51:17.850Z,8.91
2023-01-07T08:53:45.927Z,8.97
2023-01-07T08:56:13.576Z,9.03
2023-01-07T08:58:41.353Z,9.04
2023-01-07T09:01:09.316Z,9.04
2023-01-07T09:03:36.980Z,8.94
2023-01-07T09:06:04.710Z,8.96
2023-01-07T09:08:32.483Z,9.01
2023-01-07T09:11:00.078Z,9.18
2023-01-07T09:13:27.728Z,9.07
2023-01-07T09:15:55.311Z,9.09
2023-01-07T09:18:22.997Z,9.10
2023-01-07T09:20:50.587Z,9.24
2023-01-07T09:23:43.244Z,9.41
2023-01-07T09:26:10.783Z,9.11
2023-01-07T09:28:38.260Z,9.04
2023-01-07T09:31:07.211Z,9.27
2023-01-07T09:33:35.056Z,9.35
2023-01-07T09:36:02.673Z,9.34
2023-01-07T09:38:30.312Z,9.38
2023-01-07T09:40:58.093Z,9.51
2023-01-07T09:44:00.005Z,9.54
2023-01-07T09:46:22.052Z,9.65
2023-01-07T09:49:01.136Z,9.67
2023-01-07T09:51:38.348Z,9.57
2023-01-07T09:54:17.499Z,9.50
2023-01-07T09:56:46.661Z,9.64
2023-01-07T09:59:14.921Z,9.76
2023-01-07T10:02:04.854Z,9.63
2023-01-07T10:04:50.907Z,9.68
2023-01-07T10:07:40.183Z,9.72
2023-01-07T10:10:30.682Z,10.08
2023-01-07T10:13:26.397Z,10.01
2023-01-07T10:16:11.994Z,10.22
2023-01-07T10:19:14.308Z,10.07
2023-01-07T10:21:47.538Z,10.13
2023-01-07T10:24:32.196Z,10.04
2023-01-07T10:27:10.144Z,10.31
2023-01-07T10:29:49.061Z,10.52
2023-01-07T10:32:19.632Z,10.58
2023-01-07T10:34:58.204Z,10.50
2023-01-07T10:37:41.779Z,10.42
2023-01-07T10:40:42.022Z,10.40
2023-01-07T10:46:58.615Z,10.80
2023-01-07T10:49:39.784Z,10.43
2023-01-07T11:01:21.471Z,10.66
2023-01-07T11:03:54.469Z,10.60
2023-01-07T11:06:40.993Z,9.92
2023-01-07T11:09:13.960Z,10.30
2023-01-07T11:11:42.423Z,10.46
2023-01-07T11:14:25.080Z,10.67
2023-01-07T11:17:06.872Z,10.51
2023-01-07T11:19:45.445Z,10.45
2023-01-07T11:22:25.528Z,10.60
2023-01-07T11:24:54.920Z,9.80
2023-01-07T11:27:26.064Z,10.04
2023-01-07T11:30:20.267Z,9.97
2023-01-07T11:32:59.471Z,10.16
2023-01-07T11:35:30.763Z,10.52
2023-01-07T11:37:59.865Z,10.43
2023-01-07T11:40:33.147Z,10.34
2023-01-07T11:43:03.213Z,10.14
2023-01-07T11:46:19.282Z,10.35
2023-01-07T11:48:38.622Z,10.12
2023-01-07T11:51:10.870Z,9.83
2023-01-07T11:53:52.067Z,9.50
2023-01-07T11:56:34.903Z,9.55
2023-01-07T11:59:29.586Z,9.71
2023-01-07T12:02:01.679Z,10.06
2023-01-07T12:04:36.691Z,9.82
2023-01-07T12:07:08.082Z,10.00
2023-01-07T12:09:38.828Z,10.26
2023-01-07T12:12:31.823Z,10.27
2023-01-07T12:15:26.203Z,10.10
2023-01-07T12:18:26.949Z,10.18
2023-01-07T12:21:35.754Z,10.34
2023-01-07T12:24:17.814Z,10.24
2023-01-07T12:27:03.479Z,10.21
2023-01-07T12:29:40.132Z,10.00
2023-01-07T12:32:28.136Z,9.94
2023-01-07T12:35:16.220Z,9.78
2023-01-07T12:38:09.530Z,9.78
2023-01-07T12:40:57.500Z,10.01
2023-01-07T12:44:33.599Z,10.05
2023-01-07T12:47:35.339Z,10.02
2023-01-07T12:50:26.325Z,9.83
2023-01-07T12:53:55.742Z,9.91
2023-01-07T12:56:33.384Z,9.71
2023-01-07T12:59:10.028Z,9.59
2023-01-07T13:02:14.368Z,9.82
2023-01-07T13:05:03.607Z,10.09
2023-01-07T13:07:54.059Z,10.11
2023-01-07T13:10:35.737Z,10.09
2023-01-07T13:13:14.846Z,9.93
2023-01-07T13:15:42.944Z,9.90
2023-01-07T13:18:10.603Z,10.07
2023-01-07T13:21:06.935Z,10.14
2023-01-07T13:23:43.475Z,10.11
2023-01-07T13:26:25.586Z,9.98
2023-01-07T13:29:06.005Z,10.01
2023-01-07T13:32:01.295Z,10.03
2023-01-07T13:35:14.948Z,10.12
2023-01-07T13:38:12.219Z,10.04
2023-01-07T13:41:23.037Z,10.18
2023-01-07T13:48:11.806Z,10.04
2023-01-07T13:51:57.427Z,9.79
2023-01-07T13:54:49.519Z,10.05
2023-01-07T13:57:50.290Z,9.80
2023-01-07T14:07:04.283Z,9.72
2023-01-07T14:09:00.603Z,9.69
2023-01-07T14:28:15.473Z,9.70
2023-01-07T14:31:37.696Z,9.79
2023-01-07T14:35:22.959Z,9.63
2023-01-07T14:38:18.550Z,9.56
2023-01-07T14:42:29.413Z,9.51
2023-01-07T14:46:04.413Z,9.56
2023-01-07T14:49:14.870Z,9.42
2023-01-07T14:52:18.892Z,9.42
2023-01-07T14:56:52.886Z,9.50
2023-01-07T15:00:30.462Z,9.44
2023-01-07T15:03:33.961Z,9.50
2023-01-07T15:06:59.897Z,9.54
2023-01-07T15:11:51.671Z,9.14
2023-01-07T15:14:47.257Z,9.45
2023-01-07T15:17:24.344Z,9.38
2023-01-07T15:29:01.655Z,9.32
2023-01-07T15:32:10.358Z,9.43
2023-01-07T15:34:44.146Z,9.14
2023-01-07T15:37:17.131Z,9.13
2023-01-07T15:44:25.518Z,8.91
2023-01-07T15:46:54.073Z,9.22
2023-01-07T15:49:23.230Z,9.04
2023-01-07T15:52:45.266Z,9.15
2023-01-07T15:55:23.512Z,9.03
2023-01-07T15:57:55.136Z,9.13
2023-01-07T16:00:23.317Z,9.29
2023-01-07T16:02:51.590Z,9.14
2023-01-07T16:05:19.851Z,9.21
2023-01-07T16:07:53.954Z,8.94
2023-01-07T16:10:30.676Z,9.13
2023-01-07T16:13:04.289Z,9.19
2023-01-07T16:15:33.561Z,9.26
2023-01-07T16:18:03.752Z,9.28
2023-01-07T16:20:38.907Z,8.98
2023-01-07T16:23:09.285Z,8.93
2023-01-07T16:26:04.885Z,8.82
2023-01-07T16:28:57.080Z,8.81
2023-01-07T16:31:28.208Z,9.01
2023-01-07T16:33:59.270Z,9.06
2023-01-07T16:36:31.971Z,9.04
2023-01-07T16:39:07.692Z,9.12
2023-01-07T16:41:35.494Z,9.08
2023-01-07T16:44:03.257Z,9.21
2023-01-07T16:46:36.561Z,9.12
2023-01-07T16:49:19.475Z,8.95
2023-01-07T16:52:04.512Z,9.04
2023-01-07T16:54:43.167Z,8.90
2023-01-07T16:57:10.763Z,8.90
2023-01-07T16:59:49.797Z,8.94
2023-01-07T17:02:17.464Z,8.95
2023-01-07T17:04:47.007Z,8.86
2023-01-07T17:07:21.879Z,8.95
2023-01-07T17:09:53.849Z,8.97
2023-01-07T17:12:36.990Z,9.00
2023-01-07T17:15:32.289Z,8.99
2023-01-07T17:18:12.553Z,8.97
2023-01-07T17:20:48.919Z,8.99
2023-01-07T17:23:25.359Z,9.00
2023-01-07T17:26:11.023Z,9.11
2023-01-07T17:29:09.604Z,9.31
2023-01-07T17:31:40.049Z,9.22
2023-01-07T17:34:11.545Z,8.88
2023-01-07T17:36:39.602Z,8.98
2023-01-07T17:39:07.431Z,9.02
2023-01-07T17:41:55.421Z,8.93
2023-01-07T17:44:23.218Z,8.90
2023-01-07T17:46:54.604Z,9.03
2023-01-07T17:49:32.613Z,9.13
2023-01-07T17:52:00.358Z,9.11
2023-01-07T17:54:28.085Z,9.00
2023-01-07T17:56:56.231Z,8.90
2023-01-07T17:59:24.247Z,9.08
2023-01-07T18:01:53.457Z,8.95
2023-01-07T18:04:21.961Z,8.97
2023-01-07T18:06:49.696Z,8.99
2023-01-07T18:09:17.263Z,8.95
2023-01-07T18:12:05.309Z,9.05
2023-01-07T18:14:33.562Z,8.95
2023-01-07T18:17:01.206Z,8.98
2023-01-07T18:19:28.671Z,8.84
2023-01-07T18:21:56.344Z,8.77
2023-01-07T18:24:24.160Z,8.68
2023-01-07T18:26:51.679Z,8.79
2023-01-07T18:29:19.227Z,8.87
2023-01-07T18:31:46.932Z,8.82
2023-01-07T18:34:15.547Z,8.97
2023-01-07T18:36:43.469Z,8.88
2023-01-07T18:39:19.028Z,8.93
2023-01-07T18:41:50.187Z,8.87
2023-01-07T18:44:19.585Z,8.96
2023-01-07T18:46:47.413Z,8.80
2023-01-07T18:49:15.153Z,8.89
2023-01-07T18:51:42.710Z,8.97
2023-01-07T18:54:20.832Z,8.88
2023-01-07T18:58:35.888Z,9.05
2023-01-07T19:01:12.698Z,8.87
2023-01-07T19:05:16.471Z,8.77
2023-01-07T19:07:36.269Z,8.91
2023-01-07T19:10:17.975Z,8.82
2023-01-07T19:12:50.734Z,8.81
2023-01-07T19:15:20.847Z,8.95
2023-01-07T19:17:50.621Z,8.99
2023-01-07T19:20:18.404Z,9.03
2023-01-07T19:22:48.389Z,9.06
2023-01-07T19:25:17.247Z,9.12
2023-01-07T19:27:45.054Z,9.09
2023-01-07T19:31:11.524Z,9.04
2023-01-07T19:33:46.061Z,8.95
2023-01-07T19:36:36.660Z,9.12
2023-01-07T19:39:42.387Z,9.16
2023-01-07T20:36:18.178Z,8.75
2023-01-07T20:39:20.985Z,8.78
2023-01-07T20:42:12.541Z,8.72
2023-01-07T20:45:06.169Z,8.63
2023-01-07T20:48:57.553Z,8.71
2023-01-07T20:58:19.332Z,8.72
2023-01-07T21:00:40.352Z,8.68
2023-01-07T21:03:22.949Z,8.49
2023-01-07T21:06:28.791Z,8.60
2023-01-07T21:09:18.917Z,8.66
2023-01-07T21:19:07.546Z,8.73
2023-01-07T21:21:40.707Z,8.59
2023-01-07T21:24:24.223Z,8.57
2023-01-07T21:27:07.384Z,8.48
2023-01-07T21:29:40.696Z,8.41
2023-01-07T21:32:15.518Z,8.52
2023-01-07T21:34:46.861Z,8.75
2023-01-07T21:37:15.911Z,8.60
2023-01-07T21:39:43.752Z,8.59
2023-01-07T21:42:14.172Z,8.59
2023-01-07T21:44:43.959Z,8.53
2023-01-07T21:47:11.688Z,8.54
2023-01-07T21:49:39.528Z,8.59
2023-01-07T21:52:20.453Z,8.64
2023-01-07T21:54:57.010Z,8.58
2023-01-07T21:57:40.535Z,8.66
2023-01-07T22:00:16.212Z,8.41
2023-01-07T22:02:51.044Z,8.49
2023-01-07T22:05:28.174Z,8.48
2023-01-07T22:08:09.434Z,8.68
2023-01-07T22:11:29.698Z,8.50
2023-01-07T22:14:23.092Z,8.41
2023-01-07T22:17:17.384Z,8.39
2023-01-07T22:23:56.302Z,8.37
2023-01-07T22:26:26.916Z,8.15
2023-01-07T22:29:30.891Z,8.16
2023-01-07T22:32:10.278Z,8.14
2023-01-07T22:34:49.697Z,8.23
2023-01-07T22:37:24.327Z,8.45
2023-01-07T22:40:10.790Z,8.43
2023-01-07T22:42:53.252Z,8.45
2023-01-07T22:45:39.861Z,8.60
2023-01-07T22:48:14.676Z,8.57
2023-01-07T22:50:42.548Z,8.58
2023-01-07T22:53:22.375Z,8.58
2023-01-07T22:55:55.497Z,8.46
2023-01-07T22:58:23.292Z,8.63
2023-01-07T23:00:51.547Z,8.70
2023-01-07T23:03:27.929Z,8.61
2023-01-07T23:05:58.188Z,8.58
2023-01-07T23:08:26.041Z,8.47
2023-01-07T23:10:53.926Z,8.49
2023-01-07T23:13:22.252Z,8.44
2023-01-07T23:15:50.058Z,8.32
2023-01-07T23:18:20.172Z,8.47
2023-01-07T23:20:48.982Z,8.46
2023-01-07T23:23:19.169Z,8.38
2023-01-07T23:25:51.506Z,8.36
2023-01-07T23:28:21.769Z,8.37
2023-01-07T23:30:52.359Z,8.47
2023-01-07T23:33:22.058Z,8.62
2023-01-07T23:35:54.231Z,8.45
2023-01-07T23:38:25.183Z,8.44
2023-01-07T23:41:03.192Z,8.40
2023-01-07T23:43:49.797Z,8.33
2023-01-07T23:46:20.274Z,8.35
2023-01-07T23:48:54.882Z,8.35
2023-01-07T23:51:25.065Z,8.38
2023-01-07T23:54:06.073Z,8.34
2023-01-07T23:56:55.487Z,8.12
2023-01-07T23:59:45.759Z,8.32
